Bookmark and Share
Track history (hours):
 

Virtsu

Last reported at 2014-Apr-14 17:33 UTC. Time now 2014-Apr-19 05:07 UTC.
Position N 37°45' E 024°23'.

Length 90 m; draft 4 m.

Type: Cargo ship. MMSI: 232414000.

NotesDate/timePositionNaut miles runAvg speedWind from/ knotsBaromVisibWave heightAir tempDewpointWater temp
2014-Apr-14 17:33N 37°45' E 024°23'27 8.9
2014-Apr-14 14:30N 37°38' E 023°50'9 9.1
2014-Apr-14 13:34N 37°43' E 023°41'20 0.5
2014-Apr-12 21:06N 38°02' E 023°33'0 0.0
2014-Apr-11 20:17N 38°02' E 023°33'0 0.0
2014-Apr-11 19:29N 38°02' E 023°33'0 0.0
2014-Apr-11 15:33N 38°02' E 023°33'0 0.0
2014-Apr-11 14:23N 38°02' E 023°33'5 6.2
2014-Apr-11 13:33N 37°57' E 023°35'6 5.6
2014-Apr-11 12:33N 37°52' E 023°39'9 9.0
2014-Apr-11 11:33N 37°44' E 023°43'9 8.4
2014-Apr-11 10:30N 37°35' E 023°44'  
2014-Apr-08 21:21N 40°08' E 013°26'1110.4
2014-Apr-08 20:14N 40°16' E 013°16'1910.4
2014-Apr-08 18:22N 40°30' E 012°58'1310.3
2014-Apr-08 17:07N 40°40' E 012°46'1810.6
2014-Apr-08 15:24N 40°53' E 012°30'11710.7
2014-Apr-08 04:25N 42°18' E 010°42'910.3
2014-Apr-08 03:33N 42°24' E 010°33'1210.9
2014-Apr-08 02:25N 42°33' E 010°22'2010.1
2014-Apr-08 00:23N 42°48' E 010°03'911.0
2014-Apr-07 23:33N 42°57' E 010°05'1111.3
2014-Apr-07 22:33N 43°09' E 010°06'1110.9
2014-Apr-07 21:33N 43°19' E 010°08'1110.5
2014-Apr-07 20:31N 43°30' E 010°12'6 5.5
2014-Apr-07 19:28N 43°33' E 010°18'0 0.0
2014-Apr-07 17:33N 43°33' E 010°18'0 0.0
2014-Apr-07 16:33N 43°33' E 010°18'0 0.0
2014-Apr-07 15:33N 43°33' E 010°18'0 0.0
2014-Apr-07 14:34N 43°33' E 010°18'0 0.0
2014-Apr-07 13:33N 43°33' E 010°18'0 0.0
2014-Apr-07 12:33N 43°33' E 010°18'0 0.0
2014-Apr-07 11:33N 43°33' E 010°18'0 0.0
2014-Apr-07 10:33N 43°33' E 010°18'0 0.0
2014-Apr-07 09:33N 43°33' E 010°18'0 0.0
2014-Apr-07 08:33N 43°33' E 010°18'0 0.0
2014-Apr-07 07:33N 43°33' E 010°18'0 0.0
2014-Apr-07 06:34N 43°33' E 010°18'0 0.0
2014-Apr-07 05:33N 43°33' E 010°18'0 0.0
2014-Apr-07 04:33N 43°33' E 010°18'0 0.0
2014-Apr-07 03:33N 43°33' E 010°18'0 0.0
2014-Apr-07 02:33N 43°33' E 010°18'0 0.0
2014-Apr-07 01:33N 43°33' E 010°18'0 0.0
2014-Apr-07 00:34N 43°33' E 010°18'0 0.0
2014-Apr-06 23:33N 43°33' E 010°18'0 0.0
2014-Apr-06 22:33N 43°33' E 010°18'0 0.0
2014-Apr-06 21:34N 43°33' E 010°18'0 0.0
2014-Apr-06 20:33N 43°33' E 010°18'0 0.0
2014-Apr-06 19:34N 43°33' E 010°18'0 0.0
2014-Apr-06 18:34N 43°33' E 010°18'0 0.0
2014-Apr-06 17:33N 43°33' E 010°18'0 0.0
2014-Apr-06 16:33N 43°33' E 010°18'0 0.0
2014-Apr-06 15:33N 43°33' E 010°18'0 0.0
2014-Apr-06 14:33N 43°33' E 010°18'0 0.0
2014-Apr-06 13:33N 43°33' E 010°18'0 0.0
2014-Apr-06 12:33N 43°33' E 010°18'0 0.0
2014-Apr-06 11:34N 43°33' E 010°18'0 0.0
2014-Apr-06 10:33N 43°33' E 010°18'0 0.0
2014-Apr-06 09:34N 43°33' E 010°18'0 0.0
2014-Apr-06 08:33N 43°33' E 010°18'0 0.0
2014-Apr-06 07:33N 43°33' E 010°18'0 0.0
2014-Apr-06 06:34N 43°33' E 010°18'0 0.0
2014-Apr-06 05:33N 43°33' E 010°18'0 0.0
2014-Apr-06 04:33N 43°33' E 010°18'0 0.0
2014-Apr-06 03:33N 43°33' E 010°18'0 0.0
2014-Apr-06 02:33N 43°33' E 010°18'0 0.0
2014-Apr-06 01:33N 43°33' E 010°18'0 0.0
2014-Apr-06 00:34N 43°33' E 010°18'0 0.0
2014-Apr-05 23:33N 43°33' E 010°18'0 0.0
2014-Apr-05 22:33N 43°33' E 010°18'0 0.0
2014-Apr-05 21:34N 43°33' E 010°18'0 0.0
2014-Apr-05 20:33N 43°33' E 010°18'0 0.0
2014-Apr-05 19:33N 43°33' E 010°18'0 0.0
2014-Apr-05 18:33N 43°33' E 010°18'0 0.0
2014-Apr-05 17:33N 43°33' E 010°18'0 0.0
2014-Apr-05 16:33N 43°33' E 010°18'0 0.0
2014-Apr-05 15:33N 43°33' E 010°18'0 0.0
2014-Apr-05 14:33N 43°33' E 010°18'0 0.0
2014-Apr-05 13:33N 43°33' E 010°18'0 0.0
2014-Apr-05 12:33N 43°33' E 010°18'0 0.0
2014-Apr-05 11:33N 43°33' E 010°18'3 2.7
2014-Apr-05 10:33N 43°31' E 010°16'1 0.9
2014-Apr-05 09:34N 43°31' E 010°17'8 7.7
2014-Apr-05 08:34N 43°24' E 010°12'1110.9
2014-Apr-05 07:33N 43°13' E 010°09'1110.8
2014-Apr-05 06:33N 43°02' E 010°06'  

Dump ship's entire track history

sailing weather and tide predictions

Virtsu — MGLJ3 — position and weather